Station SVNM4 - South Haven Light, South Haven, MI Image indicating link to RSS feed of recent meteorological observations for station SVNM4


Conditions at SVNM4 as of
(3:30 am EDT)
0730 GMT on 04/17/2024:
     

Click on the graph icon in the table below to see a time series plot of the last five days of that observation.

5-day plot - Wind Direction Wind Direction (WDIR): E ( 90 deg true )
5-day plot - Wind Speed Wind Speed (WSPD): 14 kts
5-day plot - Wind Gust Wind Gust (GST): 16 kts
5-day plot - Air Temperature Air Temperature (ATMP): 56.7 °F
5-day plot -  Wind Speed, Wind Gust and Atmospheric Pressure Combined plot of Wind Speed, Gust, and Air Pressure
Previous observations
TIME
(EDT)
5-day plot - Wind Direction
WDIR
 
5-day plot - Wind Speed
WSPD
kts
5-day plot - Wind Gust
GST
kts
5-day plot - Wave Height
WVHT
ft
5-day plot - Dominant Wave Period
DPD
sec
5-day plot - Average Wave Period
APD
sec
5-day plot - Mean Wave Direction
MWD
 
5-day plot - Atmospheric Pressure
PRES
in
5-day plot - Pressure Tendency
PTDY
in
5-day plot - Air Temperature
ATMP
°F
5-day plot - Water Temperature
WTMP
°F
5-day plot - Dew Point
DEWP
°F
5-day plot - Salinity
SAL
psu
5-day plot - Visibility
VIS
nmi
5-day plot - Tide (above MLLW)
TIDE
ft
2024-04-17 03:20 am E 13 17------ 56.5-----
2024-04-17 03:10 am E 14 18------ 56.3-----
2024-04-17 03:00 am E 15 18------ 56.3-----
2024-04-17 02:50 am E 16 19------ 56.1-----
2024-04-17 02:40 am E 15 20------ 55.8-----
2024-04-17 02:30 am E 16 20------ 55.2-----
2024-04-17 02:20 am E 15 19------ 54.7-----
2024-04-17 02:10 am E 16 20------ 54.1-----
2024-04-17 02:00 am E 14 18------ 53.8-----
2024-04-17 01:50 am E 17 24------ 54.3-----
2024-04-17 01:40 am E 15 19------ 55.0-----
2024-04-17 01:30 am E 14 18------ 56.3-----
2024-04-17 01:20 am E 13 16------ 55.9-----
2024-04-17 01:10 am E 13 16------ 56.1-----
2024-04-17 01:00 am E 13 18------ 56.7-----
2024-04-17 12:50 am E 13 20------ 58.8-----
2024-04-17 12:40 am E 14 16------ 59.4-----
2024-04-17 12:30 am E 12 15------ 59.2-----
2024-04-17 12:20 am E 13 15------ 59.0-----
2024-04-17 12:10 am E 17 20------ 60.3-----
2024-04-17 12:00 am E 16 20------ 63.1-----
2024-04-16 11:50 pm E 16 20------ 63.5-----
2024-04-16 11:40 pm E 15 20------ 63.1-----
2024-04-16 11:30 pm E 13 16------ 62.2-----
2024-04-16 11:20 pm E 15 18------ 62.2-----
2024-04-16 11:10 pm E 17 23------ 62.1-----
2024-04-16 11:00 pm E 24 30------ 62.1-----
2024-04-16 10:50 pm E 15 24------ 65.7-----
2024-04-16 10:40 pm E 19 25------ 66.7-----
2024-04-16 10:30 pm E 12 17------ 66.9-----
2024-04-16 10:20 pm E 19 24------ 67.6-----
2024-04-16 10:10 pm E 19 26------ 67.6-----
2024-04-16 10:00 pm E 23 30------ 68.4-----
2024-04-16 09:50 pm E 21 27------ 68.5-----
2024-04-16 09:40 pm E 18 23------ 68.7-----
2024-04-16 09:30 pm E 17 24------ 69.3-----
2024-04-16 09:20 pmENE 16 22------ 69.1-----
2024-04-16 09:10 pm E 17 20------ 69.3-----
2024-04-16 09:00 pmENE 16 22------ 69.4-----
2024-04-16 08:50 pmENE 17 21------ 70.3-----
2024-04-16 08:40 pm E 18 23------ 70.7-----
2024-04-16 08:30 pm E 13 20------ 70.7-----
2024-04-16 08:20 pm E 13 16------ 70.9-----
2024-04-16 08:10 pm E 13 18------ 71.2-----
2024-04-16 08:00 pm E 14 20------ 71.6-----
2024-04-16 07:40 pm E 13 17------ 72.0-----
2024-04-16 07:30 pmENE 11 19------ 72.3-----
2024-04-16 07:20 pm E 10 12------ 72.5-----
2024-04-16 07:10 pm E 12 18------ 72.5-----
2024-04-16 07:00 pm E 13 17------ 72.7-----
2024-04-16 06:50 pm E 13 17------ 72.9-----
2024-04-16 06:40 pmENE 17 26------ 73.4-----
2024-04-16 06:30 pm E 19 25------ 73.6-----
2024-04-16 06:20 pmENE 14 18------ 73.8-----
2024-04-16 06:10 pm E 13 19------ 73.8-----
2024-04-16 06:00 pm E 17 24------ 73.9-----
2024-04-16 05:50 pm E 9 11------ 74.3-----
2024-04-16 05:40 pm E 17 21------ 74.7-----
2024-04-16 05:30 pmENE 20 29------ 74.5-----
2024-04-16 05:20 pm E 10 15------ 74.7-----
2024-04-16 05:10 pm E 17 23------ 74.5-----
2024-04-16 05:00 pm E 14 19------ 74.7-----
2024-04-16 04:50 pmENE 17 21------ 74.8-----
2024-04-16 04:40 pm E 16 21------ 74.7-----
2024-04-16 04:30 pmENE 18 23------ 74.5-----
2024-04-16 04:20 pm E 12 20------ 75.0-----
2024-04-16 04:10 pmENE 17 22------ 74.8-----
2024-04-16 04:00 pm E 18 23------ 74.5-----
2024-04-16 03:50 pm E 17 20------ 74.1-----
2024-04-16 03:40 pmENE 16 23------ 74.3-----
2024-04-16 03:30 pm E 17 21------ 74.1-----
2024-04-16 03:20 pm E 19 25------ 73.4-----
2024-04-16 03:10 pmENE 20 29------ 73.2-----
2024-04-16 03:00 pm E 16 19------ 72.9-----
2024-04-16 02:50 pmENE 14 19------ 72.5-----
2024-04-16 02:40 pm E 15 19------ 72.0-----
2024-04-16 02:30 pm E 16 21------ 72.0-----
2024-04-16 02:20 pmENE 18 22------ 71.2-----
2024-04-16 02:10 pm E 16 19------ 70.5-----
2024-04-16 02:00 pmENE 15 21------ 70.9-----
2024-04-16 01:50 pm E 16 20------ 70.2-----
2024-04-16 01:40 pmENE 17 25------ 69.4-----
2024-04-16 01:30 pmENE 12 16------ 69.3-----
2024-04-16 01:20 pm E 18 21------ 68.4-----
2024-04-16 01:10 pm E 15 20------ 68.0-----
2024-04-16 01:00 pm E 16 19------ 67.3-----
2024-04-16 12:50 pm E 12 18------ 66.7-----
2024-04-16 12:40 pmENE 13 19------ 66.4-----
2024-04-16 12:30 pm E 12 16------ 65.3-----
2024-04-16 12:20 pmENE 11 17------ 65.3-----
2024-04-16 12:10 pmENE 13 17------ 64.4-----
2024-04-16 12:00 pm E 12 14------ 63.5-----
2024-04-16 11:50 am E 16 20------ 63.1-----
2024-04-16 11:40 amENE 12 17------ 62.8-----
2024-04-16 11:30 amENE 13 20------ 62.1-----
2024-04-16 11:20 am E 11 20------ 61.7-----
2024-04-16 11:10 amENE 8 10------ 61.0-----
2024-04-16 11:00 amENE 9 15------ 60.3-----
2024-04-16 10:50 amENE 11 16------ 59.2-----
2024-04-16 10:40 am E 9 13------ 58.6-----
2024-04-16 10:30 am E 14 19------ 57.9-----
2024-04-16 10:20 am E 8 13------ 57.6-----
2024-04-16 10:10 amENE 13 17------ 56.5-----
2024-04-16 10:00 amENE 11 13------ 55.8-----
2024-04-16 09:50 amENE 13 16------ 55.0-----
2024-04-16 09:40 amENE 14 16------ 54.7-----
2024-04-16 09:30 am E 14 17------ 54.1-----
2024-04-16 09:20 amENE 11 15------ 53.6-----
2024-04-16 09:10 amENE 11 13------ 53.1-----
2024-04-16 09:00 amENE 12 16------ 52.3-----
2024-04-16 08:50 am NE 13 17------ 52.0-----
2024-04-16 08:40 amENE 10 13------ 51.6-----
2024-04-16 08:30 amENE 9 12------ 51.1-----
2024-04-16 08:20 am NE 9 13------ 50.7-----
2024-04-16 08:10 amENE 8 10------ 50.4-----
2024-04-16 08:00 amENE 8 13------ 50.2-----
2024-04-16 07:50 amENE 11 15------ 49.8-----
2024-04-16 07:40 amENE 9 12------ 49.6-----
2024-04-16 07:30 amENE 6 8------ 49.5-----
2024-04-16 07:20 amENE 7 9------ 49.5-----
2024-04-16 07:10 amENE 8 10------ 49.5-----
2024-04-16 07:00 am E 9 13------ 49.5-----
2024-04-16 06:50 amENE 10 13------ 49.6-----
2024-04-16 06:40 amENE 10 15------ 49.8-----
2024-04-16 06:30 amENE 13 18------ 50.0-----
2024-04-16 06:20 amENE 11 14------ 49.8-----
2024-04-16 06:10 amENE 11 14------ 50.0-----
2024-04-16 06:00 amENE 9 11------ 50.4-----
2024-04-16 05:50 amENE 9 13------ 50.5-----
2024-04-16 05:40 am NE 10 15------ 50.7-----
2024-04-16 05:30 am NE 8 13------ 50.7-----
2024-04-16 05:20 am NE 9 11------ 51.1-----
2024-04-16 05:10 am NE 8 10------ 51.1-----
2024-04-16 05:00 am NE 8 10------ 51.1-----
2024-04-16 04:50 am NE 7 9------ 51.3-----
2024-04-16 04:40 am NE 7 9------ 51.4-----
2024-04-16 04:30 am NE 7 10------ 51.4-----
2024-04-16 04:20 am NE 8 9------ 51.6-----
2024-04-16 04:10 am NE 9 11------ 51.8-----
2024-04-16 04:00 amENE 8 11------ 52.0-----
2024-04-16 03:50 am NE 10 13------ 52.3-----